Flight Track Log - Related Links

Times and Time Zones

All times are in EDT time to prevent confusion due to time zone crossing. See the AFL1403 flight status page for this flight to view local times or setup timezone preferences in your user account.

Time Position Orientation Groundspeed Altitude Reporting Facility
EDT Latitude Longitude Course Direction KTS MPH feet Rate Location/Type
Sun 09:03:00 AM 56.1847 51.8166 275° West  Level Estimated
Sun 09:04:00 AM 56.1973 51.5192 274° West  Level Estimated
Sun 09:05:00 AM 56.2092 51.2217 274° West  Level Estimated
Sun 09:06:00 AM 56.2204 50.9241 274° West  Level Estimated
Sun 09:07:00 AM 56.2309 50.6262 274° West  Level Estimated
Sun 09:08:00 AM 56.2406 50.3282 273° West  Level Estimated
Sun 09:09:00 AM 56.2497 50.0300 273° West  Level Estimated
Sun 09:10:00 AM 56.2580 49.7318 273° West  Level Estimated
Sun 09:11:00 AM 56.2656 49.4333 273° West  Level Estimated
Sun 09:12:00 AM 56.2724 49.1348 273° West  Level Estimated
Sun 09:13:00 AM 56.2786 48.8362 272° West  Level Estimated
Sun 09:14:00 AM 56.2840 48.5375 272° West  Level Estimated
Sun 09:15:00 AM 56.2888 48.2387 272° West  Level Estimated
Sun 09:16:00 AM 56.2928 47.9398 272° West  Level Estimated
Sun 09:17:00 AM 56.2961 47.6409 271° West  Level Estimated
Sun 09:18:00 AM 56.2986 47.3419 271° West  Level Estimated
Sun 09:19:00 AM 56.3005 47.0429 271° West  Level Estimated
Sun 09:20:00 AM 56.3016 46.7439 271° West  Level Estimated
Sun 09:21:00 AM 56.3020 46.4449 270° West  Level Estimated
Sun 09:22:00 AM 56.3017 46.1458 270° West  Level Estimated
Sun 09:23:00 AM 56.3006 45.8468 270° West  Level Estimated
Sun 09:24:00 AM 56.2989 45.5478 270° West  Level Estimated
Sun 09:25:00 AM 56.2964 45.2488 269° West  Level Estimated
Sun 09:26:00 AM 56.2932 44.9499 269° West  Level Estimated
Sun 09:27:00 AM 56.2893 44.6510 269° West  Level Estimated
Sun 09:28:00 AM 56.2846 44.3522 269° West  Level Estimated
Sun 09:29:00 AM 56.2793 44.0535 268° West  Level Estimated
Sun 09:30:00 AM 56.2732 43.7548 268° West  Level Estimated
Sun 09:31:00 AM 56.2664 43.4563 268° West  Level Estimated
Sun 09:32:00 AM 56.2589 43.1579 268° West  Level Estimated
Sun 09:33:00 AM 56.2507 42.8596 267° West  Level Estimated
Sun 09:34:00 AM 56.2417 42.5614 267° West  Level Estimated
Sun 09:35:00 AM 56.2321 42.2634 267° West  Level Estimated
Sun 09:36:00 AM 56.2217 41.9655 267° West  Level Estimated
Sun 09:37:00 AM 56.2106 41.6678 266° West  Level Estimated
Sun 09:38:00 AM 56.1988 41.3703 266° West  Level Estimated
Sun 09:39:00 AM 56.1862 41.0730 266° West  Level Estimated
Sun 09:40:00 AM 56.1730 40.7758 266° West  Level Estimated
Sun 09:41:00 AM 56.1590 40.4789 265° West  Level Estimated
Sun 09:42:00 AM 56.1444 40.1822 265° West  Level Estimated
Sun 09:43:00 AM 56.1290 39.8857 265° West  Level Estimated
Sun 09:44:00 AM 56.1129 39.5895 265° West  Level Estimated
Sun 09:45:00 AM 56.0961 39.2935 264° West  Level Estimated
Sun 09:46:00 AM 56.0787 38.9978 264° West  Level Estimated
Sun 09:47:00 AM 56.0605 38.7024 264° West  Level Estimated
Sun 09:48:00 AM 56.0415 38.4072 264° West  Level Estimated
Sun 09:49:00 AM 56.0219 38.1123 263° West  Level Estimated
Sun 09:50:00 AM 56.0016 37.8178 263° West  Level Estimated
Sun 09:51:00 AM 55.9806 37.5235 263° West  Level Estimated
Sun 09:52:00 AM 55.9726 37.4146 263° West  Level Estimated
Sun 09:53:00 AM 55.9726 37.4146 North  Level Estimated
Sun 09:54:00 AM 55.9726 37.4146 North  Level Estimated
Sun 09:55:00 AM 55.9726 37.4146 North  Level Estimated
Sun 09:56:00 AM 55.9726 37.4146 North  Level Estimated
Sun 09:57:00 AM 55.9726 37.4146 North  Level Estimated
Sun 09:58:00 AM 55.9726 37.4146 North  Level Estimated
Sun 09:59:00 AM 55.9726 37.4146 North  Level Estimated
Sun 10:00:00 AM 55.9726 37.4146 North  Level Estimated
Sun 10:01:00 AM 55.9726 37.4146 North  Level Estimated
Sun 10:02:00 AM 55.9726 37.4146 North  Level Estimated
Sun 10:03:00 AM 55.9726 37.4146 North  Level Estimated
Sun 10:04:00 AM 55.9726 37.4146 North  Level Estimated
Sun 10:05:00 AM 55.9726 37.4146 North  Level Estimated
Sun 10:06:00 AM 55.9726 37.4146 North  Level Estimated
Sun 10:07:00 AM 55.9726 37.4146 North  Level Estimated
Sun 10:08:00 AM 55.9726 37.4146 North  Level Estimated
Sun 10:09:00 AM 55.9726 37.4146 North  Level Estimated
Sun 10:10:00 AM 55.9726 37.4146 North  Level Estimated
Sun 10:11:00 AM 55.9726 37.4146 North  Level Estimated
Sun 10:12:00 AM 55.9726 37.4146 North  Level Estimated
Sun 10:13:00 AM 55.9726 37.4146 North  Level Estimated
Sun 10:14:00 AM 55.9726 37.4146 North  Level Estimated
Sun 10:15:00 AM 55.9726 37.4146 North  Level Estimated
Sun 10:16:00 AM 55.9726 37.4146 North  Level Estimated
Sun 10:17:00 AM 55.9726 37.4146 North  Level Estimated
Sun 10:18:00 AM 55.9726 37.4146 North  Level Estimated
Sun 10:19:00 AM 55.9726 37.4146 North  Level Estimated
Sun 10:20:00 AM 55.9726 37.4146 North  Level Estimated
Sun 10:21:00 AM 55.9726 37.4146 North  Level Estimated
Sun 10:22:00 AM 55.9726 37.4146 North  Level Estimated
Sun 10:23:00 AM 55.9726 37.4146 North  Level Estimated
Sun 10:24:00 AM 55.9726 37.4146 North  Level Estimated
Sun 10:25:00 AM 55.9726 37.4146 North  Level Estimated
Sun 10:26:00 AM 55.9726 37.4146 North  Level Estimated
Sun 10:27:00 AM 55.9726 37.4146 North  Level Estimated
Sun 10:28:00 AM 55.9726 37.4146 North  Level Estimated
Sun 10:29:00 AM 55.9726 37.4146 North  Level Estimated
Sun 10:30:00 AM 55.9726 37.4146 North  Level Estimated
Sun 10:31:00 AM 55.9726 37.4146 North  Level Estimated
Sun 10:32:00 AM 55.9726 37.4146 North  Level Estimated
Sun 10:33:00 AM 55.9726 37.4146 North  Level Estimated

Login

Don't have an account? Register now (free) for customized features, flight alerts, and more!